Time;durP1;ratioP1;P1;durP2;ratioP2;P2;SDS_P1;SDS_P2;PMS_P1;PMS_P2;Temp;Humidity;BMP_temperature;BMP_pressure;BME280_temperature;BME280_humidity;BME280_pressure;Samples;Min_cycle;Max_cycle;Signal;HPM_P1;HPM_P2
2024/02/18 00:01:43;;;;;;;185.10;99.43;;;;;;;;;;5124092;27;317683;-78
2024/02/18 00:04:11;;;;;;;181.90;92.93;;;;;;;;;;5112509;27;319276;-78
2024/02/18 00:06:39;;;;;;;164.23;87.00;;;;;;;;;;5124178;27;319234;-78
2024/02/18 00:09:06;;;;;;;151.57;87.20;;;;;;;;;;5106428;27;319177;-78
2024/02/18 00:11:34;;;;;;;157.23;84.10;;;;;;;;;;5123850;27;319404;-78
2024/02/18 00:14:00;;;;;;;141.40;77.47;;;;;;;;;;5111424;27;318571;-78
2024/02/18 00:16:30;;;;;;;130.20;71.03;;;;;;;;;;5121715;27;354759;-78
2024/02/18 00:19:00;;;;;;;155.77;77.13;;;;;;;;;;5113181;27;343151;-78
2024/02/18 00:21:29;;;;;;;133.13;71.57;;;;;;;;;;5139474;27;317898;-78
2024/02/18 00:23:57;;;;;;;117.87;65.27;;;;;;;;;;5130143;27;347621;-78
2024/02/18 00:26:25;;;;;;;130.67;69.80;;;;;;;;;;5142456;27;317156;-78
2024/02/18 00:28:54;;;;;;;116.03;64.40;;;;;;;;;;5130898;27;340040;-78
2024/02/18 00:31:23;;;;;;;90.67;60.30;;;;;;;;;;5132333;27;358337;-78
2024/02/18 00:33:50;;;;;;;121.77;68.63;;;;;;;;;;5130306;27;316855;-78
2024/02/18 00:36:20;;;;;;;108.50;65.60;;;;;;;;;;5137254;27;316478;-78
2024/02/18 00:38:48;;;;;;;123.57;64.90;;;;;;;;;;5123804;27;319300;-78
2024/02/18 00:41:16;;;;;;;124.63;64.60;;;;;;;;;;5097771;27;419978;-78
2024/02/18 00:43:45;;;;;;;124.97;67.13;;;;;;;;;;5122029;27;317495;-78
2024/02/18 00:46:14;;;;;;;127.20;61.07;;;;;;;;;;5112215;27;319278;-78
2024/02/18 00:48:44;;;;;;;124.37;59.33;;;;;;;;;;5120636;27;345973;-78
2024/02/18 00:51:11;;;;;;;101.80;52.63;;;;;;;;;;5103968;27;319105;-78
2024/02/18 00:53:39;;;;;;;77.43;42.93;;;;;;;;;;5123576;27;318268;-78
2024/02/18 00:56:07;;;;;;;79.50;43.00;;;;;;;;;;5112024;27;317569;-78
2024/02/18 00:58:36;;;;;;;79.10;43.30;;;;;;;;;;5123419;27;317626;-78
2024/02/18 01:01:05;;;;;;;71.03;40.90;;;;;;;;;;5104758;27;317908;-78
2024/02/18 01:03:32;;;;;;;75.87;43.90;;;;;;;;;;5121417;27;317450;-78
2024/02/18 01:06:00;;;;;;;69.80;42.50;;;;;;;;;;5110791;27;317647;-78
2024/02/18 01:08:28;;;;;;;72.83;41.93;;;;;;;;;;5121977;27;317467;-78
2024/02/18 01:10:57;;;;;;;64.33;37.73;;;;;;;;;;5112008;27;318125;-78
2024/02/18 01:13:24;;;;;;;59.80;35.80;;;;;;;;;;5114748;27;317357;-78
2024/02/18 01:15:53;;;;;;;61.87;34.97;;;;;;;;;;5112121;27;317852;-78
2024/02/18 01:18:21;;;;;;;56.97;33.13;;;;;;;;;;5120460;27;318258;-78
2024/02/18 01:20:49;;;;;;;59.57;32.20;;;;;;;;;;5123655;27;318132;-77
2024/02/18 01:23:16;;;;;;;70.43;36.07;;;;;;;;;;5096762;27;418824;-77
2024/02/18 01:25:43;;;;;;;66.20;37.17;;;;;;;;;;5122204;27;317504;-77
2024/02/18 01:28:12;;;;;;;64.10;34.97;;;;;;;;;;5111153;27;317923;-77
2024/02/18 01:30:40;;;;;;;63.17;33.60;;;;;;;;;;5121527;27;317676;-77
2024/02/18 01:33:08;;;;;;;65.50;33.27;;;;;;;;;;5103792;27;318257;-77
2024/02/18 01:35:37;;;;;;;65.30;35.10;;;;;;;;;;5121669;27;317483;-77
2024/02/18 01:38:05;;;;;;;58.23;34.13;;;;;;;;;;5110817;27;317953;-77
2024/02/18 01:40:33;;;;;;;62.57;33.43;;;;;;;;;;5123065;27;316721;-78
2024/02/18 01:43:00;;;;;;;57.60;32.07;;;;;;;;;;5110860;27;318317;-78
2024/02/18 01:45:29;;;;;;;56.40;29.80;;;;;;;;;;5116347;27;317581;-77
2024/02/18 01:47:58;;;;;;;58.30;31.57;;;;;;;;;;5111475;27;318344;-78
2024/02/18 01:50:26;;;;;;;60.20;29.30;;;;;;;;;;5121547;27;317864;-78
2024/02/18 01:52:53;;;;;;;49.20;26.17;;;;;;;;;;5107992;27;318090;-78
2024/02/18 01:55:22;;;;;;;50.90;25.87;;;;;;;;;;5114183;27;316446;-78
2024/02/18 01:57:51;;;;;;;51.67;26.70;;;;;;;;;;5123131;27;317708;-78
2024/02/18 02:00:22;;;;;;;58.43;30.13;;;;;;;;;;5108668;27;417919;-78
2024/02/18 02:02:51;;;;;;;53.03;25.93;;;;;;;;;;5123384;27;325385;-78
2024/02/18 02:05:21;;;;;;;41.97;26.80;;;;;;;;;;5104745;27;419173;-78
2024/02/18 02:07:49;;;;;;;48.47;27.73;;;;;;;;;;5125939;27;317565;-78
2024/02/18 02:10:17;;;;;;;45.03;25.93;;;;;;;;;;5108416;27;418803;-78
2024/02/18 02:12:44;;;;;;;44.50;24.43;;;;;;;;;;5123017;27;316510;-78
2024/02/18 02:15:12;;;;;;;46.13;26.30;;;;;;;;;;5111712;27;318185;-77
2024/02/18 02:17:41;;;;;;;49.13;28.13;;;;;;;;;;5139605;27;317500;-77
2024/02/18 02:20:11;;;;;;;45.40;24.53;;;;;;;;;;5123351;27;318115;-77
2024/02/18 02:22:37;;;;;;;39.47;24.50;;;;;;;;;;5136966;27;317681;-77
2024/02/18 02:25:05;;;;;;;41.53;23.20;;;;;;;;;;5116272;27;317604;-77
2024/02/18 02:27:37;;;;;;;50.77;26.80;;;;;;;;;;5126977;27;317775;-77
2024/02/18 02:30:12;;;;;;;53.73;28.10;;;;;;;;;;5112916;27;317844;-77
2024/02/18 02:32:40;;;;;;;52.97;26.67;;;;;;;;;;5123447;27;327058;-77
2024/02/18 02:35:09;;;;;;;47.73;26.10;;;;;;;;;;5104651;27;318512;-77
2024/02/18 02:37:37;;;;;;;46.73;25.87;;;;;;;;;;5123565;27;317752;-77
2024/02/18 02:40:06;;;;;;;46.43;25.23;;;;;;;;;;5113197;27;324970;-77
2024/02/18 02:42:33;;;;;;;51.37;25.07;;;;;;;;;;5125000;27;317758;-77
2024/02/18 02:45:01;;;;;;;46.77;26.57;;;;;;;;;;5111791;27;318027;-77
2024/02/18 02:47:30;;;;;;;42.03;24.93;;;;;;;;;;5118260;27;317656;-77
2024/02/18 02:49:57;;;;;;;37.53;21.47;;;;;;;;;;5111753;27;318119;-77
2024/02/18 02:52:24;;;;;;;29.00;18.63;;;;;;;;;;5124453;27;317621;-78
2024/02/18 02:54:51;;;;;;;29.37;18.17;;;;;;;;;;5116436;27;317691;-78
2024/02/18 02:57:19;;;;;;;35.23;17.87;;;;;;;;;;5114742;27;317822;-77
2024/02/18 02:59:48;;;;;;;36.47;19.00;;;;;;;;;;5123443;27;316290;-77
2024/02/18 03:02:17;;;;;;;33.90;17.93;;;;;;;;;;5106654;27;418508;-77
2024/02/18 03:04:51;;;;;;;32.83;18.13;;;;;;;;;;5125024;27;317593;-78
2024/02/18 03:07:21;;;;;;;26.07;16.67;;;;;;;;;;5090990;27;417392;-77
2024/02/18 03:09:47;;;;;;;36.53;22.20;;;;;;;;;;5123313;27;317823;-77
2024/02/18 03:12:14;;;;;;;40.63;21.73;;;;;;;;;;5112756;27;317353;-76
2024/02/18 03:14:42;;;;;;;47.87;25.90;;;;;;;;;;5122605;27;317833;-77
2024/02/18 03:17:10;;;;;;;40.63;24.57;;;;;;;;;;5102603;27;318487;-77
2024/02/18 03:19:38;;;;;;;45.53;24.93;;;;;;;;;;5124668;27;317684;-78
2024/02/18 03:22:10;;;;;;;40.07;26.90;;;;;;;;;;5111326;27;316590;-78
2024/02/18 03:24:38;;;;;;;45.10;27.83;;;;;;;;;;5122843;27;317552;-78
2024/02/18 03:27:08;;;;;;;56.50;30.23;;;;;;;;;;5103243;27;316407;-78
2024/02/18 03:29:37;;;;;;;55.70;31.73;;;;;;;;;;5123074;27;318462;-78
2024/02/18 03:32:07;;;;;;;64.93;34.33;;;;;;;;;;5110609;27;317684;-78
2024/02/18 03:34:37;;;;;;;68.53;34.07;;;;;;;;;;5120769;27;317688;-78
2024/02/18 03:37:08;;;;;;;62.73;35.87;;;;;;;;;;5107305;27;318372;-78
2024/02/18 03:39:38;;;;;;;54.17;32.63;;;;;;;;;;5124110;27;317557;-78
2024/02/18 03:42:07;;;;;;;48.10;30.07;;;;;;;;;;5111499;27;356474;-78
2024/02/18 03:44:38;;;;;;;54.97;30.50;;;;;;;;;;5124122;27;316290;-78
2024/02/18 03:47:06;;;;;;;55.57;32.40;;;;;;;;;;5104095;27;317795;-78
2024/02/18 03:49:34;;;;;;;60.90;34.37;;;;;;;;;;5123393;27;326362;-77
2024/02/18 03:52:02;;;;;;;73.37;37.47;;;;;;;;;;5108136;27;350456;-77
2024/02/18 03:54:31;;;;;;;70.50;37.57;;;;;;;;;;5121472;27;350884;-77
2024/02/18 03:57:02;;;;;;;67.80;39.13;;;;;;;;;;5110987;27;317622;-77
2024/02/18 03:59:30;;;;;;;80.20;42.93;;;;;;;;;;5124199;27;317643;-77
2024/02/18 04:01:59;;;;;;;94.37;41.97;;;;;;;;;;5110672;27;317583;-77
2024/02/18 04:04:29;;;;;;;65.77;35.53;;;;;;;;;;5122567;27;318307;-77
2024/02/18 04:06:56;;;;;;;58.13;34.63;;;;;;;;;;5108611;27;349641;-78
2024/02/18 04:09:24;;;;;;;61.63;34.40;;;;;;;;;;5116209;27;317803;-77
2024/02/18 04:11:54;;;;;;;80.07;41.37;;;;;;;;;;5123743;27;317956;-77
2024/02/18 04:14:20;;;;;;;76.70;40.77;;;;;;;;;;5108284;27;418817;-77
2024/02/18 04:16:47;;;;;;;75.23;40.27;;;;;;;;;;5122620;27;317654;-77
2024/02/18 04:19:15;;;;;;;73.03;41.00;;;;;;;;;;5100185;27;318241;-77
2024/02/18 04:21:43;;;;;;;83.23;39.40;;;;;;;;;;5122803;27;317839;-77
2024/02/18 04:24:11;;;;;;;92.10;49.20;;;;;;;;;;5111659;27;318045;-77
2024/02/18 04:26:37;;;;;;;80.57;45.80;;;;;;;;;;5122254;27;318179;-77
2024/02/18 04:29:07;;;;;;;79.57;42.67;;;;;;;;;;5103786;27;318238;-77
2024/02/18 04:31:35;;;;;;;74.27;41.87;;;;;;;;;;5120154;27;327049;-77
2024/02/18 04:34:03;;;;;;;66.40;37.73;;;;;;;;;;5109702;27;317632;-77
2024/02/18 04:36:31;;;;;;;93.17;55.33;;;;;;;;;;5120227;27;318065;-77
2024/02/18 04:38:59;;;;;;;68.10;41.10;;;;;;;;;;5111081;27;317624;-77
2024/02/18 04:41:27;;;;;;;75.97;38.70;;;;;;;;;;5117658;27;318001;-77
2024/02/18 04:43:54;;;;;;;64.73;37.67;;;;;;;;;;5111570;27;317528;-77
2024/02/18 04:46:23;;;;;;;96.13;53.13;;;;;;;;;;5120998;27;318132;-77
2024/02/18 04:48:51;;;;;;;102.93;55.53;;;;;;;;;;5123501;27;318654;-77
2024/02/18 04:51:22;;;;;;;102.37;56.20;;;;;;;;;;5097712;27;418461;-77
2024/02/18 04:53:48;;;;;;;71.37;41.27;;;;;;;;;;5123178;27;318952;-78
2024/02/18 04:56:15;;;;;;;73.40;42.40;;;;;;;;;;5111253;27;317687;-77
2024/02/18 04:58:43;;;;;;;77.63;42.80;;;;;;;;;;5121396;27;318215;-77
2024/02/18 05:01:13;;;;;;;82.17;43.63;;;;;;;;;;5101997;27;321292;-77
2024/02/18 05:03:42;;;;;;;71.77;40.83;;;;;;;;;;5122666;27;317625;-77
2024/02/18 05:06:09;;;;;;;69.57;41.53;;;;;;;;;;5101396;27;318138;-77
2024/02/18 05:08:38;;;;;;;76.17;42.63;;;;;;;;;;5120203;27;317968;-77
2024/02/18 05:11:05;;;;;;;88.50;44.67;;;;;;;;;;5100696;27;333346;-78
2024/02/18 05:13:33;;;;;;;91.23;51.40;;;;;;;;;;5123196;27;316827;-78
2024/02/18 05:15:59;;;;;;;123.10;70.63;;;;;;;;;;5112004;27;318074;-78
2024/02/18 05:18:27;;;;;;;109.20;65.13;;;;;;;;;;5123787;27;318978;-78
2024/02/18 05:20:57;;;;;;;93.50;53.03;;;;;;;;;;5112487;27;319675;-77
2024/02/18 05:23:28;;;;;;;80.13;40.87;;;;;;;;;;5115266;27;318118;-77
2024/02/18 05:25:56;;;;;;;55.97;33.77;;;;;;;;;;5110714;27;318189;-77
2024/02/18 05:28:24;;;;;;;51.40;31.50;;;;;;;;;;5123716;27;317643;-77
2024/02/18 05:30:51;;;;;;;44.77;27.23;;;;;;;;;;5118437;27;318200;-77
2024/02/18 05:33:19;;;;;;;43.87;27.40;;;;;;;;;;5114043;27;317798;-77
2024/02/18 05:35:46;;;;;;;70.80;32.63;;;;;;;;;;5124216;27;317495;-77
2024/02/18 05:38:16;;;;;;;64.83;36.60;;;;;;;;;;5113015;27;318099;-78
2024/02/18 05:40:44;;;;;;;65.70;33.63;;;;;;;;;;5124835;27;317768;-77
2024/02/18 05:43:11;;;;;;;65.17;34.77;;;;;;;;;;5102537;27;318170;-77
2024/02/18 05:45:38;;;;;;;60.03;35.87;;;;;;;;;;5122078;27;317314;-77
2024/02/18 05:48:06;;;;;;;94.70;48.50;;;;;;;;;;5113336;27;329437;-78
2024/02/18 05:50:33;;;;;;;91.77;51.83;;;;;;;;;;5123392;27;317466;-78
2024/02/18 05:53:01;;;;;;;101.90;48.37;;;;;;;;;;5111091;27;318132;-79
2024/02/18 05:55:30;;;;;;;106.53;47.20;;;;;;;;;;5120934;27;345985;-78
2024/02/18 05:57:58;;;;;;;82.03;44.00;;;;;;;;;;5115441;27;319398;-76
2024/02/18 06:00:26;;;;;;;90.77;46.00;;;;;;;;;;5127618;27;317545;-76
2024/02/18 06:02:56;;;;;;;63.97;41.87;;;;;;;;;;5112820;27;318378;-77
2024/02/18 06:05:24;;;;;;;75.27;46.60;;;;;;;;;;5117294;27;318457;-77
2024/02/18 06:07:50;;;;;;;85.77;50.53;;;;;;;;;;5101327;27;357930;-78
2024/02/18 06:10:19;;;;;;;106.47;60.17;;;;;;;;;;5125458;27;317716;-77
2024/02/18 06:12:52;;;;;;;116.30;62.43;;;;;;;;;;5123625;27;343875;-77
2024/02/18 06:15:19;;;;;;;89.07;52.73;;;;;;;;;;5096791;27;418782;-77
2024/02/18 06:17:47;;;;;;;84.43;49.73;;;;;;;;;;5122990;27;316289;-78
2024/02/18 06:20:16;;;;;;;81.17;49.67;;;;;;;;;;5114121;27;317739;-77
2024/02/18 06:22:46;;;;;;;80.80;47.97;;;;;;;;;;5125742;27;318070;-77
2024/02/18 06:25:13;;;;;;;86.40;53.67;;;;;;;;;;5106506;27;318158;-77
2024/02/18 06:27:41;;;;;;;100.17;58.63;;;;;;;;;;5123171;27;318455;-77
2024/02/18 06:30:11;;;;;;;97.63;55.73;;;;;;;;;;5112392;27;353441;-78
2024/02/18 06:32:39;;;;;;;81.33;42.20;;;;;;;;;;5125825;27;318101;-79
2024/02/18 06:35:08;;;;;;;80.67;50.10;;;;;;;;;;5103746;27;317333;-79
2024/02/18 06:37:37;;;;;;;114.33;59.70;;;;;;;;;;5125506;27;317916;-78
2024/02/18 06:40:06;;;;;;;125.53;68.57;;;;;;;;;;5113044;27;318645;-78
2024/02/18 06:42:36;;;;;;;124.13;72.20;;;;;;;;;;5122525;27;317636;-77
2024/02/18 06:45:06;;;;;;;142.40;82.93;;;;;;;;;;5106074;27;319073;-78
2024/02/18 06:47:40;;;;;;;144.43;85.27;;;;;;;;;;5122868;27;318416;-78
2024/02/18 06:50:08;;;;;;;156.47;88.90;;;;;;;;;;5109866;27;326150;-77
2024/02/18 06:52:35;;;;;;;157.53;90.30;;;;;;;;;;5118646;27;319049;-78
2024/02/18 06:55:06;;;;;;;145.57;85.77;;;;;;;;;;5107904;27;337457;-76
2024/02/18 06:57:37;;;;;;;143.97;85.23;;;;;;;;;;5121658;27;317492;-76
2024/02/18 07:00:09;;;;;;;155.03;88.70;;;;;;;;;;5111377;27;319207;-76
2024/02/18 07:02:38;;;;;;;148.23;89.10;;;;;;;;;;5124058;27;318761;-76
2024/02/18 07:05:08;;;;;;;167.83;94.50;;;;;;;;;;5104192;27;318372;-76
2024/02/18 07:07:35;;;;;;;154.63;91.93;;;;;;;;;;5124047;27;334513;-77
2024/02/18 07:10:02;;;;;;;149.33;93.10;;;;;;;;;;5109597;27;319998;-76
2024/02/18 07:12:29;;;;;;;159.30;91.17;;;;;;;;;;5124089;27;318958;-76
2024/02/18 07:14:58;;;;;;;148.60;93.03;;;;;;;;;;5110990;27;318467;-76
2024/02/18 07:17:26;;;;;;;152.03;90.17;;;;;;;;;;5113833;27;319325;-76
2024/02/18 07:19:56;;;;;;;148.60;88.83;;;;;;;;;;5110934;27;318973;-76
2024/02/18 07:22:26;;;;;;;142.53;86.53;;;;;;;;;;5118035;27;328429;-76
2024/02/18 07:24:53;;;;;;;155.57;88.20;;;;;;;;;;5111073;27;318937;-76
2024/02/18 07:27:20;;;;;;;131.60;74.13;;;;;;;;;;5115165;27;319231;-76
2024/02/18 07:29:47;;;;;;;114.07;69.70;;;;;;;;;;5120935;27;318902;-76
2024/02/18 07:32:15;;;;;;;108.90;65.83;;;;;;;;;;5110245;27;319066;-76
2024/02/18 07:34:43;;;;;;;137.97;69.43;;;;;;;;;;5121976;27;319277;-76
2024/02/18 07:37:12;;;;;;;127.80;72.60;;;;;;;;;;5103507;27;319438;-76
2024/02/18 07:39:40;;;;;;;105.13;62.67;;;;;;;;;;5120286;27;318808;-76
2024/02/18 07:42:09;;;;;;;112.17;64.30;;;;;;;;;;5110958;27;319128;-76
2024/02/18 07:44:37;;;;;;;85.73;57.27;;;;;;;;;;5122893;27;319046;-76
2024/02/18 07:47:08;;;;;;;104.30;60.73;;;;;;;;;;5102325;27;318741;-76
2024/02/18 07:49:34;;;;;;;105.47;64.20;;;;;;;;;;5124133;27;319237;-76
2024/02/18 07:52:01;;;;;;;133.53;83.07;;;;;;;;;;5110058;27;318674;-76
2024/02/18 07:54:33;;;;;;;128.03;78.77;;;;;;;;;;5123248;27;317939;-76
2024/02/18 07:57:00;;;;;;;118.77;70.37;;;;;;;;;;5112541;27;319176;-76
2024/02/18 07:59:29;;;;;;;114.27;74.43;;;;;;;;;;5120681;27;318830;-76
2024/02/18 08:01:56;;;;;;;174.63;103.87;;;;;;;;;;5107761;27;318615;-76
2024/02/18 08:04:27;;;;;;;149.57;95.70;;;;;;;;;;5120505;27;320138;-76
2024/02/18 08:06:54;;;;;;;157.33;95.27;;;;;;;;;;5109847;27;340105;-78
2024/02/18 08:09:20;;;;;;;204.60;120.37;;;;;;;;;;5115485;27;317428;-78
2024/02/18 08:11:50;;;;;;;202.60;114.43;;;;;;;;;;5121872;27;319855;-78
2024/02/18 08:14:18;;;;;;;182.93;103.10;;;;;;;;;;5115301;27;420618;-77
2024/02/18 08:16:44;;;;;;;174.73;100.57;;;;;;;;;;5137516;27;318833;-79
2024/02/18 08:19:13;;;;;;;139.07;82.73;;;;;;;;;;5116448;27;319142;-77
2024/02/18 08:21:40;;;;;;;89.00;53.17;;;;;;;;;;5136993;27;317409;-77
2024/02/18 08:24:08;;;;;;;72.90;47.80;;;;;;;;;;5125376;27;317517;-77
2024/02/18 08:26:36;;;;;;;49.07;32.23;;;;;;;;;;5138176;27;316632;-78
2024/02/18 08:29:04;;;;;;;45.57;25.77;;;;;;;;;;5113587;27;346951;-78
2024/02/18 08:31:31;;;;;;;45.47;27.40;;;;;;;;;;5121122;27;317442;-78
2024/02/18 08:34:00;;;;;;;41.13;27.00;;;;;;;;;;5112621;27;317712;-78
2024/02/18 08:36:28;;;;;;;59.33;35.73;;;;;;;;;;5122529;27;348937;-78
2024/02/18 08:38:57;;;;;;;66.93;37.67;;;;;;;;;;5109622;27;318115;-78
2024/02/18 08:41:25;;;;;;;58.37;36.53;;;;;;;;;;5114617;27;317954;-78
2024/02/18 08:43:53;;;;;;;56.90;33.13;;;;;;;;;;5112577;27;316786;-78
2024/02/18 08:46:23;;;;;;;56.97;36.20;;;;;;;;;;5124084;27;318270;-78
2024/02/18 08:48:50;;;;;;;55.77;34.13;;;;;;;;;;5124147;27;318295;-77
2024/02/18 08:51:17;;;;;;;63.07;37.23;;;;;;;;;;5099250;27;419218;-76
2024/02/18 08:53:44;;;;;;;46.93;28.53;;;;;;;;;;5123077;27;318145;-78
2024/02/18 08:56:12;;;;;;;51.60;28.00;;;;;;;;;;5109771;27;357769;-77
2024/02/18 08:58:41;;;;;;;45.37;27.87;;;;;;;;;;5124108;27;316404;-77
2024/02/18 09:01:10;;;;;;;45.53;27.13;;;;;;;;;;5104693;27;317756;-77
2024/02/18 09:03:40;;;;;;;43.83;27.30;;;;;;;;;;5122363;27;317775;-77
2024/02/18 09:06:08;;;;;;;49.80;30.70;;;;;;;;;;5110120;27;318255;-77
2024/02/18 09:08:37;;;;;;;50.20;28.40;;;;;;;;;;5121447;27;317667;-77
2024/02/18 09:11:03;;;;;;;45.93;29.47;;;;;;;;;;5106694;27;318389;-77
2024/02/18 09:13:30;;;;;;;69.30;41.20;;;;;;;;;;5117790;27;318093;-77
2024/02/18 09:15:58;;;;;;;65.97;36.50;;;;;;;;;;5110328;27;322622;-77
2024/02/18 09:18:26;;;;;;;65.10;35.67;;;;;;;;;;5122962;27;316612;-77
2024/02/18 09:20:54;;;;;;;48.33;30.87;;;;;;;;;;5109842;27;353092;-77
2024/02/18 09:23:22;;;;;;;63.67;38.17;;;;;;;;;;5116312;27;317270;-77
2024/02/18 09:25:50;;;;;;;61.03;34.73;;;;;;;;;;5121810;27;316752;-77
2024/02/18 09:28:18;;;;;;;60.43;36.40;;;;;;;;;;5108781;27;417647;-78
2024/02/18 09:30:46;;;;;;;53.43;35.40;;;;;;;;;;5123706;27;318336;-78
2024/02/18 09:33:13;;;;;;;66.93;35.53;;;;;;;;;;5101215;27;318016;-78
2024/02/18 09:35:41;;;;;;;72.07;45.27;;;;;;;;;;5123977;27;318262;-78
2024/02/18 09:38:12;;;;;;;70.43;42.00;;;;;;;;;;5111137;27;316502;-78
2024/02/18 09:40:40;;;;;;;70.83;41.47;;;;;;;;;;5124146;27;317618;-78
2024/02/18 09:43:08;;;;;;;70.27;40.83;;;;;;;;;;5104173;27;318188;-77
2024/02/18 09:45:37;;;;;;;73.97;43.27;;;;;;;;;;5123019;27;318013;-78
2024/02/18 09:48:08;;;;;;;72.97;43.77;;;;;;;;;;5110204;27;319763;-77
2024/02/18 09:50:36;;;;;;;72.30;44.37;;;;;;;;;;5122654;27;347684;-78
2024/02/18 09:53:09;;;;;;;74.60;48.77;;;;;;;;;;5102918;27;339951;-78
2024/02/18 09:55:39;;;;;;;66.97;44.43;;;;;;;;;;5123617;27;318229;-79
2024/02/18 09:58:07;;;;;;;69.67;43.47;;;;;;;;;;5109926;27;317892;-77
2024/02/18 10:00:37;;;;;;;82.23;49.73;;;;;;;;;;5120798;27;318391;-77
2024/02/18 10:03:04;;;;;;;90.63;54.57;;;;;;;;;;5105385;27;317747;-77
2024/02/18 10:05:34;;;;;;;85.40;51.20;;;;;;;;;;5118516;27;317053;-77
2024/02/18 10:08:02;;;;;;;163.37;94.97;;;;;;;;;;5109826;27;318211;-77
2024/02/18 10:10:32;;;;;;;124.43;72.70;;;;;;;;;;5124829;27;319052;-78
2024/02/18 10:13:08;;;;;;;136.03;73.80;;;;;;;;;;5111395;27;332945;-79
2024/02/18 10:15:36;;;;;;;96.03;62.27;;;;;;;;;;5123113;27;319239;-77
2024/02/18 10:18:04;;;;;;;84.00;56.00;;;;;;;;;;5111366;27;317365;-77
2024/02/18 10:20:32;;;;;;;95.10;58.53;;;;;;;;;;5124718;27;317869;-79
2024/02/18 10:23:05;;;;;;;103.27;62.70;;;;;;;;;;5110473;27;317760;-79
2024/02/18 10:25:32;;;;;;;115.53;66.30;;;;;;;;;;5123382;27;319777;-78
2024/02/18 10:28:02;;;;;;;100.17;64.63;;;;;;;;;;5110936;27;343236;-79
2024/02/18 10:30:31;;;;;;;95.40;61.03;;;;;;;;;;5123835;27;317969;-78
2024/02/18 10:32:58;;;;;;;100.47;63.03;;;;;;;;;;5109709;27;317536;-79
2024/02/18 10:35:25;;;;;;;112.67;66.03;;;;;;;;;;5115256;27;319389;-79
2024/02/18 10:37:57;;;;;;;122.87;66.60;;;;;;;;;;5111781;27;374103;-80
2024/02/18 10:40:32;;;;;;;108.07;69.27;;;;;;;;;;5125035;27;318718;-77
2024/02/18 10:43:05;;;;;;;118.50;71.63;;;;;;;;;;5111786;27;319206;-77
2024/02/18 10:45:35;;;;;;;117.13;68.70;;;;;;;;;;5119608;27;319352;-76
2024/02/18 10:48:08;;;;;;;113.80;70.50;;;;;;;;;;5111152;27;352006;-77
2024/02/18 10:50:50;;;;;;;106.43;66.80;;;;;;;;;;5124059;27;318677;-78
2024/02/18 10:53:27;;;;;;;98.23;64.13;;;;;;;;;;5099621;27;419800;-76
2024/02/18 10:56:04;;;;;;;88.33;52.57;;;;;;;;;;5113294;27;318060;-77
2024/02/18 10:58:44;;;;;;;80.63;49.53;;;;;;;;;;5124325;27;316834;-76
2024/02/18 11:01:15;;;;;;;89.07;54.20;;;;;;;;;;5104964;27;317848;-76
2024/02/18 11:03:48;;;;;;;90.23;55.43;;;;;;;;;;5123157;27;317972;-76
2024/02/18 11:06:15;;;;;;;98.67;58.90;;;;;;;;;;5109281;27;317424;-76
2024/02/18 11:08:43;;;;;;;85.10;51.13;;;;;;;;;;5112838;27;318167;-77
2024/02/18 11:11:12;;;;;;;87.97;56.13;;;;;;;;;;5101487;27;318322;-77
2024/02/18 11:13:42;;;;;;;98.03;62.93;;;;;;;;;;5122806;27;316678;-76
2024/02/18 11:16:10;;;;;;;100.90;61.50;;;;;;;;;;5110327;27;318019;-76
2024/02/18 11:18:40;;;;;;;94.13;59.37;;;;;;;;;;5122091;27;318710;-77
2024/02/18 11:21:13;;;;;;;97.23;61.53;;;;;;;;;;5103225;27;317371;-76
2024/02/18 11:23:46;;;;;;;97.23;59.97;;;;;;;;;;5123730;27;316613;-77
2024/02/18 11:26:14;;;;;;;118.03;67.00;;;;;;;;;;5111506;27;318057;-77
2024/02/18 11:28:43;;;;;;;94.57;62.80;;;;;;;;;;5123234;27;319158;-76
2024/02/18 11:31:20;;;;;;;119.40;64.07;;;;;;;;;;5101959;27;317877;-77
2024/02/18 11:33:48;;;;;;;103.53;64.27;;;;;;;;;;5123536;27;318614;-77
2024/02/18 11:36:19;;;;;;;108.87;66.60;;;;;;;;;;5113176;27;318659;-77
2024/02/18 11:38:52;;;;;;;107.30;66.67;;;;;;;;;;5125462;27;341395;-79
2024/02/18 11:41:26;;;;;;;102.77;61.83;;;;;;;;;;5113722;27;418566;-79
2024/02/18 11:43:57;;;;;;;97.20;60.23;;;;;;;;;;5125313;27;322527;-79
2024/02/18 11:46:25;;;;;;;101.40;52.03;;;;;;;;;;5114759;27;317279;-79
2024/02/18 11:48:52;;;;;;;78.30;50.93;;;;;;;;;;5128206;27;317139;-79
2024/02/18 11:51:21;;;;;;;99.57;62.40;;;;;;;;;;5132648;27;317908;-79
2024/02/18 11:53:48;;;;;;;92.03;53.60;;;;;;;;;;5137957;27;316345;-79
2024/02/18 11:56:16;;;;;;;90.63;56.00;;;;;;;;;;5122494;27;401090;-79
2024/02/18 11:58:47;;;;;;;59.93;35.17;;;;;;;;;;5133467;27;316482;-79
2024/02/18 12:01:19;;;;;;;65.10;42.13;;;;;;;;;;5106297;27;318517;-78
2024/02/18 12:03:46;;;;;;;60.27;37.40;;;;;;;;;;5128900;27;316704;-79
2024/02/18 12:06:14;;;;;;;59.47;36.63;;;;;;;;;;5119222;27;348928;-79
2024/02/18 12:08:42;;;;;;;61.43;36.97;;;;;;;;;;5123068;27;316380;-79
2024/02/18 12:11:10;;;;;;;60.17;37.67;;;;;;;;;;5110155;27;317932;-78
2024/02/18 12:13:39;;;;;;;65.20;41.07;;;;;;;;;;5122006;27;337100;-80
2024/02/18 12:16:10;;;;;;;72.23;46.47;;;;;;;;;;5110174;27;317500;-80
2024/02/18 12:18:39;;;;;;;68.03;43.10;;;;;;;;;;5124188;27;318026;-81
2024/02/18 12:21:07;;;;;;;66.37;36.17;;;;;;;;;;5105901;27;317616;-78
2024/02/18 12:23:39;;;;;;;56.63;38.33;;;;;;;;;;5106608;27;316471;-79
2024/02/18 12:26:11;;;;;;;58.83;36.00;;;;;;;;;;5109232;27;332888;-79
2024/02/18 12:28:38;;;;;;;50.87;31.93;;;;;;;;;;5123938;27;316905;-80
2024/02/18 12:31:06;;;;;;;51.40;32.83;;;;;;;;;;5103330;27;317811;-79
2024/02/18 12:33:34;;;;;;;60.80;30.27;;;;;;;;;;5121665;27;317356;-78
2024/02/18 12:36:05;;;;;;;49.80;31.57;;;;;;;;;;5112420;27;317917;-78
2024/02/18 12:38:33;;;;;;;49.47;32.50;;;;;;;;;;5121722;27;317480;-79
2024/02/18 12:41:00;;;;;;;39.03;25.47;;;;;;;;;;5111480;27;317679;-79
2024/02/18 12:43:28;;;;;;;42.10;27.47;;;;;;;;;;5118088;27;316589;-79
2024/02/18 12:45:55;;;;;;;47.70;26.23;;;;;;;;;;5109319;27;317851;-79
2024/02/18 12:48:23;;;;;;;43.57;26.80;;;;;;;;;;5122495;27;317907;-79
2024/02/18 12:51:12;;;;;;;59.47;40.87;;;;;;;;;;5122825;27;318300;-78
2024/02/18 12:53:41;;;;;;;62.67;40.40;;;;;;;;;;5105889;27;418743;-79
2024/02/18 12:56:10;;;;;;;68.10;39.53;;;;;;;;;;5112470;27;318257;-78
2024/02/18 12:58:40;;;;;;;54.30;35.67;;;;;;;;;;5124161;27;318446;-80
2024/02/18 13:01:09;;;;;;;59.40;31.77;;;;;;;;;;5106759;27;316578;-79
2024/02/18 13:03:36;;;;;;;45.50;29.33;;;;;;;;;;5124783;27;317504;-79
2024/02/18 13:06:03;;;;;;;40.93;28.73;;;;;;;;;;5114018;27;318254;-79
2024/02/18 13:08:34;;;;;;;52.00;31.30;;;;;;;;;;5125571;27;316777;-80
2024/02/18 13:11:01;;;;;;;45.20;29.23;;;;;;;;;;5113209;27;317993;-81
2024/02/18 13:13:28;;;;;;;49.70;29.50;;;;;;;;;;5123795;27;317535;-81
2024/02/18 13:15:55;;;;;;;49.73;32.23;;;;;;;;;;5109608;27;317307;-80
2024/02/18 13:18:23;;;;;;;60.57;35.33;;;;;;;;;;5125148;27;317874;-81
2024/02/18 13:20:51;;;;;;;63.40;42.93;;;;;;;;;;5124026;27;318302;-81
2024/02/18 13:23:18;;;;;;;40.40;26.53;;;;;;;;;;5102770;27;417804;-82
2024/02/18 13:25:46;;;;;;;74.87;46.80;;;;;;;;;;5124947;27;317645;-79
2024/02/18 13:28:16;;;;;;;68.83;37.70;;;;;;;;;;5112062;27;318093;-79
2024/02/18 13:30:44;;;;;;;61.80;37.57;;;;;;;;;;5124952;27;317679;-79
2024/02/18 13:33:12;;;;;;;28.10;18.93;;;;;;;;;;5104782;27;317724;-79
2024/02/18 13:35:40;;;;;;;19.13;12.37;;;;;;;;;;5123743;27;317388;-79
2024/02/18 13:38:10;;;;;;;19.60;10.93;;;;;;;;;;5109408;27;317650;-80
2024/02/18 13:40:40;;;;;;;10.67;9.20;;;;;;;;;;5121594;27;317669;-80
2024/02/18 13:43:08;;;;;;;14.27;9.20;;;;;;;;;;5098650;27;316457;-75
2024/02/18 13:45:36;;;;;;;9.63;7.30;;;;;;;;;;5119956;27;318925;-79
2024/02/18 13:48:05;;;;;;;13.00;9.00;;;;;;;;;;5112937;27;316544;-79
2024/02/18 13:50:34;;;;;;;10.17;7.83;;;;;;;;;;5123104;27;316627;-78
2024/02/18 13:53:02;;;;;;;15.70;7.57;;;;;;;;;;5109361;27;317729;-78
2024/02/18 13:55:30;;;;;;;39.83;24.87;;;;;;;;;;5120761;27;317474;-77
2024/02/18 13:57:59;;;;;;;9.77;8.03;;;;;;;;;;5114059;27;318791;-77
2024/02/18 14:00:33;;;;;;;9.43;7.03;;;;;;;;;;5125093;27;317197;-78
2024/02/18 14:03:00;;;;;;;10.97;8.13;;;;;;;;;;5110794;27;354936;-79
2024/02/18 14:05:29;;;;;;;9.40;7.03;;;;;;;;;;5120994;27;316280;-79
2024/02/18 14:07:56;;;;;;;9.27;6.73;;;;;;;;;;5113519;27;316985;-79
2024/02/18 14:10:27;;;;;;;13.00;7.73;;;;;;;;;;5123626;27;315549;-79